Time;durP1;ratioP1;P1;durP2;ratioP2;P2;SDS_P1;SDS_P2;PMS_P1;PMS_P2;Temp;Humidity;BMP_temperature;BMP_pressure;BME280_temperature;BME280_humidity;BME280_pressure;Samples;Min_cycle;Max_cycle;Signal;HPM_P1;HPM_P2
2023/04/20 00:01:26;;;;;;;7.30;6.50;;;3.10;90.10;;;;;;5003229;28;20221;-71
2023/04/20 00:03:53;;;;;;;6.90;5.30;;;3.10;90.80;;;;;;4991839;28;20525;-70
2023/04/20 00:06:21;;;;;;;8.60;6.95;;;3.00;90.90;;;;;;5000839;28;20825;-70
2023/04/20 00:08:48;;;;;;;7.35;6.05;;;2.80;91.10;;;;;;4996169;28;20213;-71
2023/04/20 00:11:15;;;;;;;5.97;5.33;;;2.60;92.00;;;;;;4996658;28;20243;-69
2023/04/20 00:13:41;;;;;;;7.18;6.40;;;2.50;92.30;;;;;;5002813;28;20448;-70
2023/04/20 00:16:08;;;;;;;7.88;6.95;;;2.40;92.10;;;;;;5003285;28;20200;-70
2023/04/20 00:18:35;;;;;;;8.82;6.47;;;2.30;92.20;;;;;;5012295;28;20663;-70
2023/04/20 00:21:02;;;;;;;10.00;7.30;;;2.20;91.70;;;;;;4996211;28;20222;-71
2023/04/20 00:23:30;;;;;;;6.95;6.35;;;2.30;92.60;;;;;;5003131;28;20221;-71
2023/04/20 00:25:57;;;;;;;6.77;6.07;;;2.40;92.20;;;;;;5004957;28;20201;-70
2023/04/20 00:28:23;;;;;;;6.80;6.18;;;2.30;92.70;;;;;;5007464;28;21008;-70
2023/04/20 00:30:50;;;;;;;6.88;5.82;;;2.40;91.50;;;;;;4997189;28;20231;-70
2023/04/20 00:33:17;;;;;;;8.50;6.43;;;2.40;92.20;;;;;;4996911;28;20201;-70
2023/04/20 00:35:44;;;;;;;7.57;6.75;;;2.30;90.70;;;;;;5001838;28;20698;-70
2023/04/20 00:38:10;;;;;;;6.38;5.78;;;2.30;91.90;;;;;;5002020;28;20706;-70
2023/04/20 00:40:39;;;;;;;6.35;5.85;;;2.40;91.80;;;;;;4992177;28;20212;-69
2023/04/20 00:43:12;;;;;;;7.22;6.53;;;2.30;91.80;;;;;;4998481;28;20207;-70
2023/04/20 00:45:39;;;;;;;6.50;5.90;;;2.10;91.60;;;;;;5004076;28;20195;-69
2023/04/20 00:48:07;;;;;;;8.00;6.20;;;2.10;91.20;;;;;;5011040;28;20215;-70
2023/04/20 00:50:34;;;;;;;8.48;6.63;;;2.00;92.30;;;;;;4997004;28;20700;-69
2023/04/20 00:53:02;;;;;;;9.32;7.28;;;1.90;92.10;;;;;;5006729;28;20220;-70
2023/04/20 00:55:30;;;;;;;8.38;7.20;;;1.80;93.10;;;;;;5011819;28;20212;-71
2023/04/20 00:57:58;;;;;;;11.18;6.40;;;1.80;93.10;;;;;;5000329;28;20203;-71
2023/04/20 01:00:26;;;;;;;7.72;6.82;;;1.70;92.40;;;;;;5004025;28;20212;-71
2023/04/20 01:02:53;;;;;;;8.88;7.22;;;1.70;92.30;;;;;;4998129;28;20295;-72
2023/04/20 01:05:20;;;;;;;9.07;6.95;;;1.60;92.90;;;;;;5002665;28;20290;-71
2023/04/20 01:07:47;;;;;;;8.60;7.25;;;1.70;92.60;;;;;;4994339;28;20227;-71
2023/04/20 01:10:13;;;;;;;8.60;7.38;;;1.70;92.50;;;;;;5003107;28;20208;-72
2023/04/20 01:12:41;;;;;;;9.40;7.57;;;1.60;93.30;;;;;;5010468;28;20227;-72
2023/04/20 01:15:09;;;;;;;9.00;7.47;;;1.60;93.80;;;;;;4999806;28;20212;-71
2023/04/20 01:17:38;;;;;;;7.18;6.47;;;1.60;93.10;;;;;;4996695;28;20187;-71
2023/04/20 01:20:08;;;;;;;10.35;7.50;;;1.70;92.90;;;;;;4998274;28;20197;-71
2023/04/20 01:22:43;;;;;;;8.85;6.60;;;1.80;92.60;;;;;;5000993;28;20220;-70
2023/04/20 01:25:10;;;;;;;7.82;7.00;;;1.80;92.50;;;;;;4994370;28;20550;-70
2023/04/20 01:27:37;;;;;;;12.73;6.90;;;1.80;92.30;;;;;;5009376;28;20219;-70
2023/04/20 01:30:04;;;;;;;8.65;7.32;;;1.80;92.30;;;;;;5012150;28;20209;-70
2023/04/20 01:32:31;;;;;;;7.68;6.93;;;1.70;92.60;;;;;;5002315;28;20590;-70
2023/04/20 01:34:58;;;;;;;8.80;7.40;;;1.60;92.80;;;;;;5013100;28;20199;-72
2023/04/20 01:37:25;;;;;;;8.57;7.78;;;1.50;93.00;;;;;;5019550;28;20195;-72
2023/04/20 01:39:53;;;;;;;8.60;7.40;;;1.40;93.30;;;;;;5006662;28;20206;-72
2023/04/20 01:42:20;;;;;;;11.02;7.70;;;1.40;93.90;;;;;;4998673;28;20318;-71
2023/04/20 01:44:47;;;;;;;9.88;8.82;;;1.40;93.40;;;;;;5005489;28;20665;-72
2023/04/20 01:47:14;;;;;;;8.30;7.50;;;1.50;93.20;;;;;;5002588;28;20201;-70
2023/04/20 01:49:41;;;;;;;7.40;6.70;;;1.50;93.20;;;;;;5004364;28;20217;-71
2023/04/20 01:52:09;;;;;;;9.80;8.30;;;1.40;93.30;;;;;;5006273;28;20227;-70
2023/04/20 01:54:36;;;;;;;9.30;7.72;;;1.40;94.00;;;;;;5006471;28;20197;-72
2023/04/20 01:57:04;;;;;;;8.93;7.85;;;1.40;94.30;;;;;;4999005;28;20199;-71
2023/04/20 01:59:31;;;;;;;9.02;7.65;;;1.30;94.30;;;;;;5021320;28;20224;-71
2023/04/20 02:01:58;;;;;;;7.72;7.03;;;1.20;94.20;;;;;;4999754;28;20219;-70
2023/04/20 02:04:25;;;;;;;8.20;7.50;;;1.20;93.80;;;;;;4990268;28;20825;-70
2023/04/20 02:06:52;;;;;;;8.27;7.47;;;1.10;94.10;;;;;;4998981;28;20196;-70
2023/04/20 02:09:18;;;;;;;8.68;7.88;;;1.00;94.20;;;;;;5002857;28;20893;-70
2023/04/20 02:11:45;;;;;;;8.93;7.65;;;1.10;94.00;;;;;;4990387;28;20237;-70
2023/04/20 02:14:13;;;;;;;9.45;7.88;;;1.20;93.70;;;;;;4990002;28;20210;-70
2023/04/20 02:16:41;;;;;;;8.52;7.43;;;1.20;93.70;;;;;;5003772;28;20198;-72
2023/04/20 02:19:08;;;;;;;7.32;6.55;;;1.10;94.00;;;;;;4993446;28;20196;-71
2023/04/20 02:21:35;;;;;;;9.63;7.50;;;1.00;94.00;;;;;;4995761;28;20298;-71
2023/04/20 02:24:02;;;;;;;9.27;8.20;;;0.90;94.30;;;;;;5007371;28;20194;-71
2023/04/20 02:26:29;;;;;;;7.93;7.22;;;0.90;95.10;;;;;;4996139;28;20202;-71
2023/04/20 02:28:56;;;;;;;11.63;9.20;;;0.90;95.40;;;;;;4997548;28;20203;-70
2023/04/20 02:31:24;;;;;;;9.65;7.53;;;0.90;95.30;;;;;;5001556;28;20218;-71
2023/04/20 02:33:51;;;;;;;9.75;8.43;;;0.80;95.30;;;;;;5000411;28;20190;-70
2023/04/20 02:36:17;;;;;;;12.15;10.10;;;0.80;95.50;;;;;;4997559;28;20222;-70
2023/04/20 02:38:44;;;;;;;9.82;8.85;;;0.80;95.70;;;;;;4990976;28;20561;-71
2023/04/20 02:41:11;;;;;;;10.05;7.85;;;0.90;95.70;;;;;;5009923;28;20324;-70
2023/04/20 02:43:38;;;;;;;12.65;9.60;;;1.00;95.80;;;;;;4999684;28;20198;-72
2023/04/20 02:46:06;;;;;;;10.10;9.00;;;1.10;95.70;;;;;;4995558;28;20664;-72
2023/04/20 02:48:34;;;;;;;9.13;8.23;;;1.20;95.40;;;;;;4995554;28;20300;-70
2023/04/20 02:51:01;;;;;;;10.35;9.25;;;1.20;95.50;;;;;;4998315;28;20727;-70
2023/04/20 02:53:28;;;;;;;9.95;8.75;;;1.20;95.30;;;;;;4999480;28;20202;-70
2023/04/20 02:55:54;;;;;;;9.07;7.45;;;1.10;94.80;;;;;;4992528;28;20217;-70
2023/04/20 02:58:21;;;;;;;11.82;8.77;;;1.00;95.00;;;;;;5001967;28;20192;-71
2023/04/20 03:00:48;;;;;;;10.73;9.45;;;1.00;94.90;;;;;;4993146;28;20199;-71
2023/04/20 03:03:15;;;;;;;11.80;10.50;;;1.00;95.20;;;;;;4995241;28;20693;-71
2023/04/20 03:05:43;;;;;;;9.10;8.20;;;0.90;95.20;;;;;;4997815;28;20668;-70
2023/04/20 03:08:10;;;;;;;10.10;8.75;;;0.80;95.50;;;;;;5006003;28;20222;-70
2023/04/20 03:10:37;;;;;;;9.55;8.63;;;0.70;95.80;;;;;;5007376;28;20671;-69
2023/04/20 03:13:04;;;;;;;9.40;8.50;;;0.70;96.30;;;;;;4998265;28;20242;-70
2023/04/20 03:15:32;;;;;;;9.95;8.82;;;0.80;96.30;;;;;;5002837;28;20602;-71
2023/04/20 03:17:58;;;;;;;11.77;9.05;;;0.80;96.00;;;;;;4994032;28;20196;-71
2023/04/20 03:20:25;;;;;;;11.30;9.63;;;0.70;96.10;;;;;;4994476;28;20195;-71
2023/04/20 03:22:53;;;;;;;11.10;9.80;;;0.60;96.30;;;;;;4997651;28;20705;-71
2023/04/20 03:25:20;;;;;;;10.05;9.05;;;0.70;96.50;;;;;;4998923;28;20332;-70
2023/04/20 03:27:47;;;;;;;11.20;9.77;;;0.80;96.70;;;;;;5012987;28;20297;-70
2023/04/20 03:30:14;;;;;;;10.30;9.30;;;0.80;96.60;;;;;;4996639;28;20214;-70
2023/04/20 03:32:42;;;;;;;11.30;9.15;;;0.80;96.40;;;;;;5002490;28;20222;-70
2023/04/20 03:35:09;;;;;;;11.00;9.23;;;0.80;96.20;;;;;;5007595;28;20195;-69
2023/04/20 03:37:37;;;;;;;11.65;9.90;;;0.70;96.20;;;;;;5001518;28;20191;-71
2023/04/20 03:40:07;;;;;;;11.80;9.00;;;0.70;96.20;;;;;;4993153;28;20246;-72
2023/04/20 03:42:34;;;;;;;12.35;10.25;;;0.70;96.20;;;;;;4996671;28;20219;-71
2023/04/20 03:45:01;;;;;;;12.90;10.73;;;0.60;96.40;;;;;;4996756;28;20230;-71
2023/04/20 03:47:27;;;;;;;11.52;10.32;;;0.70;96.70;;;;;;5008360;28;20203;-70
2023/04/20 03:49:54;;;;;;;12.70;9.43;;;0.50;96.60;;;;;;5008170;28;20218;-70
2023/04/20 03:52:21;;;;;;;12.45;10.90;;;0.50;96.40;;;;;;5000793;28;20604;-70
2023/04/20 03:54:48;;;;;;;12.60;10.05;;;0.60;96.80;;;;;;5010638;28;20209;-70
2023/04/20 03:57:16;;;;;;;10.70;9.60;;;0.50;96.70;;;;;;5002039;28;20209;-70
2023/04/20 03:59:42;;;;;;;11.10;9.93;;;0.70;97.10;;;;;;4996884;28;20205;-70
2023/04/20 04:02:12;;;;;;;13.38;11.00;;;0.60;96.80;;;;;;5004622;28;20214;-69
2023/04/20 04:04:38;;;;;;;10.77;9.68;;;0.50;96.80;;;;;;5002165;28;20653;-71
2023/04/20 04:07:06;;;;;;;11.05;9.90;;;0.50;96.50;;;;;;5009034;28;20206;-70
2023/04/20 04:09:32;;;;;;;14.32;10.20;;;0.50;96.60;;;;;;5004435;28;20215;-71
2023/04/20 04:12:00;;;;;;;12.98;10.02;;;0.50;96.40;;;;;;4996163;28;20210;-69
2023/04/20 04:14:29;;;;;;;12.77;10.35;;;0.50;96.30;;;;;;5005694;28;20558;-70
2023/04/20 04:16:56;;;;;;;11.93;10.13;;;0.60;96.30;;;;;;4992723;28;20195;-69
2023/04/20 04:19:23;;;;;;;11.20;9.45;;;0.60;96.40;;;;;;4992202;28;20191;-70
2023/04/20 04:21:50;;;;;;;10.55;9.25;;;0.60;96.80;;;;;;4996821;28;20222;-70
2023/04/20 04:24:17;;;;;;;13.70;12.30;;;0.50;96.40;;;;;;5004160;28;20209;-70
2023/04/20 04:26:44;;;;;;;11.90;10.70;;;0.50;96.70;;;;;;5001086;28;20720;-70
2023/04/20 04:29:11;;;;;;;10.90;9.10;;;0.60;96.60;;;;;;4996686;28;20557;-70
2023/04/20 04:31:39;;;;;;;14.05;10.73;;;0.60;96.30;;;;;;5005815;28;20240;-69
2023/04/20 04:34:06;;;;;;;12.27;10.85;;;0.40;96.30;;;;;;4992438;28;20566;-71
2023/04/20 04:36:33;;;;;;;11.98;10.70;;;0.30;96.70;;;;;;4993619;28;20258;-69
2023/04/20 04:39:00;;;;;;;14.68;10.60;;;0.30;97.20;;;;;;5013551;28;20203;-71
2023/04/20 04:41:27;;;;;;;12.73;9.90;;;0.20;96.80;;;;;;4999178;28;20947;-70
2023/04/20 04:43:54;;;;;;;14.05;12.07;;;0.20;96.70;;;;;;5000265;28;20190;-72
2023/04/20 04:46:24;;;;;;;11.23;10.00;;;0.30;96.80;;;;;;5010184;28;20253;-71
2023/04/20 04:48:52;;;;;;;12.63;10.68;;;0.20;96.50;;;;;;5011451;28;20218;-71
2023/04/20 04:51:19;;;;;;;16.00;11.32;;;0.20;96.60;;;;;;4995386;28;20215;-71
2023/04/20 04:53:46;;;;;;;15.18;11.43;;;0.30;96.70;;;;;;5002649;28;20205;-70
2023/04/20 04:56:13;;;;;;;12.95;11.40;;;0.30;96.50;;;;;;5010663;28;20213;-69
2023/04/20 04:58:40;;;;;;;15.23;10.85;;;0.30;96.90;;;;;;5005176;28;20624;-71
2023/04/20 05:01:06;;;;;;;13.27;10.70;;;0.30;96.70;;;;;;5000425;28;20219;-70
2023/04/20 05:03:33;;;;;;;10.70;9.60;;;0.30;96.80;;;;;;5006998;28;20199;-72
2023/04/20 05:06:01;;;;;;;12.68;11.05;;;0.40;97.40;;;;;;5002695;28;20630;-70
2023/04/20 05:08:28;;;;;;;13.60;11.43;;;0.50;97.20;;;;;;5000061;28;20211;-72
2023/04/20 05:10:55;;;;;;;13.70;11.02;;;0.60;97.20;;;;;;5008219;28;20205;-71
2023/04/20 05:13:21;;;;;;;11.68;10.43;;;0.70;97.10;;;;;;5001438;28;20202;-71
2023/04/20 05:15:48;;;;;;;14.25;9.93;;;0.80;97.30;;;;;;4991727;28;20211;-70
2023/04/20 05:18:15;;;;;;;11.25;10.07;;;1.00;96.80;;;;;;5000020;28;20290;-71
2023/04/20 05:20:42;;;;;;;12.57;10.23;;;1.00;96.60;;;;;;4994539;28;20219;-72
2023/04/20 05:23:10;;;;;;;10.63;9.63;;;1.10;96.60;;;;;;4996978;28;20691;-70
2023/04/20 05:25:37;;;;;;;10.70;9.60;;;1.00;96.40;;;;;;5001402;28;20206;-71
2023/04/20 05:28:04;;;;;;;12.35;10.15;;;1.00;96.70;;;;;;4996097;28;20203;-72
2023/04/20 05:30:31;;;;;;;11.38;10.23;;;1.00;97.10;;;;;;5006088;28;20621;-70
2023/04/20 05:32:58;;;;;;;13.73;10.52;;;1.00;97.10;;;;;;4995401;28;20230;-71
2023/04/20 05:35:25;;;;;;;12.18;10.90;;;1.00;97.20;;;;;;4996392;28;20598;-70
2023/04/20 05:37:51;;;;;;;11.45;10.27;;;1.10;97.40;;;;;;5008636;28;20210;-71
2023/04/20 05:40:20;;;;;;;12.18;10.95;;;1.20;97.30;;;;;;5002027;28;20558;-69
2023/04/20 05:42:47;;;;;;;11.98;10.65;;;1.30;96.80;;;;;;4996595;28;20223;-69
2023/04/20 05:45:13;;;;;;;14.27;11.52;;;1.30;96.40;;;;;;5002879;28;20210;-70
2023/04/20 05:47:40;;;;;;;11.38;10.13;;;1.40;96.40;;;;;;5006590;28;20197;-71
2023/04/20 05:50:08;;;;;;;13.23;10.65;;;1.40;96.10;;;;;;5002356;28;20218;-71
2023/04/20 05:52:35;;;;;;;13.77;11.23;;;1.50;95.70;;;;;;4993626;28;20230;-72
2023/04/20 05:55:02;;;;;;;11.45;10.30;;;1.60;96.00;;;;;;4994540;28;20205;-71
2023/04/20 05:57:30;;;;;;;11.93;10.73;;;1.70;96.00;;;;;;5002297;28;20696;-71
2023/04/20 05:59:57;;;;;;;15.77;11.20;;;1.70;95.40;;;;;;5010501;28;20311;-71
2023/04/20 06:02:24;;;;;;;10.80;9.70;;;1.70;95.00;;;;;;4999487;28;20219;-70
2023/04/20 06:04:51;;;;;;;12.73;10.95;;;1.80;95.70;;;;;;5002930;28;20745;-72
2023/04/20 06:07:18;;;;;;;12.25;10.98;;;1.90;96.10;;;;;;5018921;28;20217;-71
2023/04/20 06:09:45;;;;;;;12.18;10.88;;;1.80;95.90;;;;;;5025830;28;20206;-70
2023/04/20 06:12:12;;;;;;;13.55;11.30;;;2.00;95.30;;;;;;5017443;28;20220;-70
2023/04/20 06:14:40;;;;;;;13.25;10.95;;;2.10;95.50;;;;;;5027079;28;20276;-71
2023/04/20 06:17:06;;;;;;;12.18;9.88;;;2.30;95.00;;;;;;5006351;28;20205;-70
2023/04/20 06:19:33;;;;;;;14.73;10.20;;;2.50;95.10;;;;;;4990481;28;20204;-71
2023/04/20 06:22:00;;;;;;;12.88;11.32;;;2.50;94.90;;;;;;4993737;28;20220;-71
2023/04/20 06:24:27;;;;;;;11.82;10.73;;;2.60;94.80;;;;;;4994657;28;20205;-71
2023/04/20 06:26:54;;;;;;;13.25;10.43;;;2.70;95.10;;;;;;5010383;28;20236;-71
2023/04/20 06:29:20;;;;;;;14.25;10.82;;;2.90;94.90;;;;;;4995709;28;20253;-71
2023/04/20 06:31:49;;;;;;;12.07;10.88;;;2.90;94.20;;;;;;4993650;28;20220;-70
2023/04/20 06:34:16;;;;;;;13.67;9.73;;;3.10;93.30;;;;;;4991689;28;20200;-71
2023/04/20 06:36:43;;;;;;;10.57;9.50;;;3.30;93.10;;;;;;4991445;28;20462;-70
2023/04/20 06:39:10;;;;;;;12.75;9.75;;;3.40;92.70;;;;;;5004792;28;20208;-71
2023/04/20 06:41:37;;;;;;;9.40;8.10;;;3.50;92.30;;;;;;5007347;28;20220;-70
2023/04/20 06:44:05;;;;;;;9.55;8.65;;;3.60;91.10;;;;;;5006528;28;20463;-71
2023/04/20 06:46:32;;;;;;;10.30;9.17;;;3.70;90.80;;;;;;5001472;28;20198;-71
2023/04/20 06:49:00;;;;;;;15.10;9.27;;;3.80;91.00;;;;;;5000419;28;20516;-71
2023/04/20 06:51:28;;;;;;;9.47;8.40;;;3.90;91.50;;;;;;4998492;28;20477;-71
2023/04/20 06:53:54;;;;;;;11.53;9.37;;;4.00;90.60;;;;;;5007672;28;20469;-70
2023/04/20 06:56:22;;;;;;;11.03;9.83;;;4.00;91.10;;;;;;5006323;28;20456;-72
2023/04/20 06:58:48;;;;;;;10.13;7.70;;;4.10;89.10;;;;;;5008432;28;20465;-71
2023/04/20 07:01:15;;;;;;;8.33;7.53;;;4.30;88.40;;;;;;5004061;28;20474;-72
2023/04/20 07:03:42;;;;;;;13.87;8.03;;;4.30;90.30;;;;;;5009236;28;20449;-71
2023/04/20 07:06:10;;;;;;;11.97;8.13;;;4.40;90.00;;;;;;4997768;28;20458;-71
2023/04/20 07:08:40;;;;;;;10.90;9.40;;;4.50;88.70;;;;;;5004676;28;20511;-70
2023/04/20 07:11:09;;;;;;;9.90;8.10;;;4.70;86.50;;;;;;5004976;28;20469;-70
2023/04/20 07:13:36;;;;;;;10.03;9.10;;;4.70;87.70;;;;;;5002065;28;20529;-71
2023/04/20 07:16:02;;;;;;;10.67;8.10;;;4.90;86.40;;;;;;5006977;28;20833;-72
2023/04/20 07:18:30;;;;;;;10.93;9.40;;;5.00;85.40;;;;;;4999358;28;20445;-71
2023/04/20 07:20:56;;;;;;;11.93;9.33;;;5.10;85.00;;;;;;5001453;28;20458;-72
2023/04/20 07:23:24;;;;;;;9.27;8.37;;;5.20;84.50;;;;;;5000210;28;20636;-71
2023/04/20 07:25:55;;;;;;;10.60;8.77;;;5.20;84.20;;;;;;4996040;28;20450;-71
2023/04/20 07:28:22;;;;;;;9.17;8.27;;;5.40;83.00;;;;;;5007375;28;20446;-71
2023/04/20 07:30:49;;;;;;;14.80;9.20;;;5.50;82.60;;;;;;5002261;28;20956;-71
2023/04/20 07:33:17;;;;;;;10.10;8.90;;;5.60;82.90;;;;;;5002332;28;20514;-71
2023/04/20 07:35:50;;;;;;;11.10;10.00;;;5.70;82.00;;;;;;4995654;28;20476;-71
2023/04/20 07:38:17;;;;;;;9.77;8.77;;;5.90;81.60;;;;;;4994445;28;20657;-72
2023/04/20 07:40:45;;;;;;;9.97;7.90;;;6.10;82.60;;;;;;4998213;28;20501;-72
2023/04/20 07:43:12;;;;;;;9.63;7.40;;;6.60;80.70;;;;;;4998339;28;20468;-72
2023/04/20 07:45:40;;;;;;;9.23;8.27;;;7.10;77.20;;;;;;5012335;28;20452;-72
2023/04/20 07:48:11;;;;;;;14.33;8.60;;;7.40;74.60;;;;;;4999330;28;20453;-70
2023/04/20 07:50:38;;;;;;;8.37;7.50;;;7.80;75.90;;;;;;5000368;28;20942;-71
2023/04/20 07:53:05;;;;;;;9.83;8.83;;;8.20;73.50;;;;;;4995293;28;20478;-71
2023/04/20 07:55:31;;;;;;;9.30;8.30;;;8.30;71.30;;;;;;4998175;28;20553;-70
2023/04/20 07:58:00;;;;;;;8.70;7.80;;;8.40;69.80;;;;;;4998272;28;20443;-71
2023/04/20 08:00:27;;;;;;;9.20;8.30;;;8.60;70.90;;;;;;5008340;28;20854;-71
2023/04/20 08:02:54;;;;;;;10.63;9.52;;;8.70;70.50;;;;;;5005039;28;20455;-71
2023/04/20 08:05:23;;;;;;;9.47;8.43;;;9.00;70.70;;;;;;5006275;28;20571;-71
2023/04/20 08:07:50;;;;;;;9.80;8.80;;;9.20;70.20;;;;;;5010284;28;20454;-72
2023/04/20 08:10:16;;;;;;;8.23;7.53;;;9.40;69.00;;;;;;5008286;28;20483;-72
2023/04/20 08:12:43;;;;;;;8.90;8.00;;;9.40;65.90;;;;;;4998671;28;20853;-71
2023/04/20 08:15:13;;;;;;;9.73;8.67;;;9.60;64.40;;;;;;4995145;28;20455;-72
2023/04/20 08:17:40;;;;;;;10.40;8.30;;;9.50;68.00;;;;;;5005166;28;20477;-72
2023/04/20 08:20:09;;;;;;;10.67;9.53;;;9.90;68.00;;;;;;5003367;28;20832;-71
2023/04/20 08:22:36;;;;;;;11.80;8.77;;;9.80;64.10;;;;;;4999830;28;20483;-72
2023/04/20 08:25:03;;;;;;;12.00;8.60;;;9.80;66.40;;;;;;5000061;28;20491;-73
2023/04/20 08:27:29;;;;;;;10.10;8.67;;;9.90;65.10;;;;;;5007064;28;20452;-71
2023/04/20 08:29:56;;;;;;;9.43;8.53;;;9.90;63.40;;;;;;5006615;28;20516;-71
2023/04/20 08:32:25;;;;;;;10.10;8.60;;;10.00;66.40;;;;;;5001430;28;21034;-70
2023/04/20 08:34:52;;;;;;;8.83;8.03;;;10.10;67.70;;;;;;5001071;28;20457;-71
2023/04/20 08:37:20;;;;;;;11.30;8.80;;;10.20;65.30;;;;;;5001508;28;20452;-71
2023/04/20 08:39:46;;;;;;;9.87;8.30;;;10.10;64.10;;;;;;5003178;28;20461;-71
2023/04/20 08:42:15;;;;;;;9.23;8.27;;;9.90;65.10;;;;;;4995606;28;20480;-71
2023/04/20 08:44:42;;;;;;;8.37;7.53;;;9.70;64.40;;;;;;5008407;28;20454;-66
2023/04/20 08:47:10;;;;;;;8.50;7.60;;;9.60;67.70;;;;;;5012709;28;20452;-67
2023/04/20 08:49:39;;;;;;;9.73;8.67;;;9.60;69.00;;;;;;5006294;28;20470;-68
2023/04/20 08:52:06;;;;;;;10.90;9.03;;;9.60;68.30;;;;;;4999046;28;20484;-71
2023/04/20 08:54:33;;;;;;;8.77;8.07;;;9.70;68.70;;;;;;5000604;28;20449;-72
2023/04/20 08:57:00;;;;;;;8.83;7.90;;;9.70;67.20;;;;;;5001175;28;20455;-71
2023/04/20 08:59:27;;;;;;;10.00;8.47;;;9.70;69.10;;;;;;5005326;28;20826;-71
2023/04/20 09:01:54;;;;;;;8.90;8.10;;;9.70;67.10;;;;;;5001444;28;20477;-71
2023/04/20 09:04:22;;;;;;;8.97;8.07;;;9.70;67.90;;;;;;4994405;28;20536;-71
2023/04/20 09:06:53;;;;;;;9.40;8.50;;;9.40;68.70;;;;;;5008756;28;20464;-72
2023/04/20 09:09:21;;;;;;;10.07;9.17;;;9.30;70.50;;;;;;5009734;28;20448;-70
2023/04/20 09:11:59;;;;;;;11.30;9.40;;;9.40;70.40;;;;;;4995269;28;21035;-71
2023/04/20 09:14:26;;;;;;;10.70;9.47;;;9.30;72.60;;;;;;5000596;28;20465;-71
2023/04/20 09:16:56;;;;;;;9.87;8.97;;;9.30;71.40;;;;;;5001472;28;20463;-71
2023/04/20 09:19:23;;;;;;;11.97;9.63;;;9.40;73.80;;;;;;4998247;28;20470;-73
2023/04/20 09:21:53;;;;;;;10.07;7.90;;;9.40;73.60;;;;;;4999583;28;20555;-73
2023/04/20 09:24:21;;;;;;;8.90;8.00;;;9.40;72.10;;;;;;5003887;28;20449;-72
2023/04/20 09:26:47;;;;;;;10.13;8.93;;;9.40;71.60;;;;;;4998670;28;20461;-71
2023/04/20 09:29:18;;;;;;;9.93;8.97;;;9.40;71.00;;;;;;4999055;28;20456;-72
2023/04/20 09:31:45;;;;;;;9.57;8.67;;;9.30;71.30;;;;;;4995500;28;20491;-72
2023/04/20 09:34:12;;;;;;;9.07;8.17;;;9.30;74.20;;;;;;4995059;28;20453;-72
2023/04/20 09:36:41;;;;;;;9.20;8.33;;;9.30;71.20;;;;;;4999706;28;20464;-72
2023/04/20 09:39:12;;;;;;;10.93;8.77;;;9.50;69.60;;;;;;4999098;28;20461;-72
2023/04/20 09:41:40;;;;;;;9.37;8.03;;;9.50;67.90;;;;;;5000446;28;20541;-73
2023/04/20 09:44:14;;;;;;;11.60;8.83;;;9.70;70.80;;;;;;5002526;28;20488;-72
2023/04/20 09:46:42;;;;;;;9.30;8.40;;;9.90;67.40;;;;;;5001656;28;20527;-73
2023/04/20 09:49:10;;;;;;;10.30;7.63;;;10.00;68.10;;;;;;4996327;28;20975;-73
2023/04/20 09:51:40;;;;;;;9.10;8.20;;;10.20;65.30;;;;;;5000632;28;20488;-72
2023/04/20 09:54:08;;;;;;;10.13;9.03;;;10.20;64.40;;;;;;5000629;28;20461;-75
2023/04/20 09:56:35;;;;;;;8.10;7.30;;;10.30;66.30;;;;;;4995742;28;20853;-73
2023/04/20 09:59:03;;;;;;;9.70;8.80;;;10.30;66.20;;;;;;5007012;28;20536;-71
2023/04/20 10:01:32;;;;;;;10.93;8.47;;;10.30;65.50;;;;;;5000872;28;20537;-70
2023/04/20 10:04:00;;;;;;;13.33;8.77;;;10.10;65.70;;;;;;5003523;28;20497;-72
2023/04/20 10:06:29;;;;;;;10.50;8.90;;;10.10;68.00;;;;;;5009064;28;20448;-71
2023/04/20 10:08:56;;;;;;;9.60;8.60;;;10.10;69.00;;;;;;5001645;28;20461;-70
2023/04/20 10:11:32;;;;;;;9.10;8.27;;;10.20;69.10;;;;;;5001709;28;20500;-71
2023/04/20 10:14:01;;;;;;;8.57;7.70;;;10.20;68.80;;;;;;4998299;28;20447;-71
2023/04/20 10:16:28;;;;;;;8.97;8.20;;;10.30;65.80;;;;;;4993603;28;20979;-72
2023/04/20 10:19:01;;;;;;;9.10;8.20;;;10.30;65.00;;;;;;4990456;28;20465;-71
2023/04/20 10:21:28;;;;;;;9.73;8.70;;;10.20;67.10;;;;;;5002096;28;20923;-72
2023/04/20 10:23:57;;;;;;;8.83;7.90;;;10.20;68.60;;;;;;5008952;28;20828;-71
2023/04/20 10:26:36;;;;;;;9.37;8.33;;;10.40;67.70;;;;;;5003856;28;20549;-73
2023/04/20 10:29:05;;;;;;;8.70;7.90;;;10.60;65.20;;;;;;5000471;28;20462;-72
2023/04/20 10:31:36;;;;;;;9.37;8.10;;;10.70;66.50;;;;;;4992263;28;20500;-72
2023/04/20 10:34:03;;;;;;;8.50;7.60;;;10.70;65.40;;;;;;5008765;28;20520;-71
2023/04/20 10:36:32;;;;;;;8.57;7.40;;;10.70;65.80;;;;;;4992739;28;20450;-72
2023/04/20 10:39:00;;;;;;;8.37;7.50;;;10.60;64.70;;;;;;4996169;28;20545;-71
2023/04/20 10:41:27;;;;;;;8.33;7.63;;;10.40;66.40;;;;;;4996244;28;20478;-72
2023/04/20 10:43:54;;;;;;;9.20;8.30;;;10.50;68.10;;;;;;4992485;28;20831;-71
2023/04/20 10:46:23;;;;;;;9.30;8.50;;;10.50;69.10;;;;;;5003168;28;20540;-69
2023/04/20 10:48:55;;;;;;;8.37;7.67;;;10.50;70.70;;;;;;4999718;28;20457;-72
2023/04/20 10:51:22;;;;;;;7.60;6.90;;;10.40;74.30;;;;;;4998871;28;21073;-71
2023/04/20 10:53:59;;;;;;;9.77;8.50;;;10.20;74.20;;;;;;4989958;28;20837;-72
2023/04/20 10:56:26;;;;;;;9.93;8.83;;;10.00;78.20;;;;;;5002971;28;20488;-72
2023/04/20 10:58:53;;;;;;;7.03;6.33;;;9.80;81.60;;;;;;4996916;28;20530;-72
2023/04/20 11:01:22;;;;;;;11.03;7.53;;;9.60;80.60;;;;;;4995220;28;20464;-72
2023/04/20 11:03:51;;;;;;;10.10;9.10;;;9.30;85.50;;;;;;4995457;28;20854;-71
2023/04/20 11:06:19;;;;;;;9.13;8.20;;;9.10;88.30;;;;;;4997973;28;20516;-70
2023/04/20 11:08:45;;;;;;;9.23;8.20;;;9.00;90.20;;;;;;5003954;28;20526;-70
2023/04/20 11:11:20;;;;;;;8.73;7.83;;;8.80;88.70;;;;;;5001492;28;20482;-71
2023/04/20 11:13:47;;;;;;;9.53;8.63;;;8.50;87.50;;;;;;4994848;28;20441;-70
2023/04/20 11:16:15;;;;;;;9.70;8.80;;;8.30;90.90;;;;;;4993353;28;20450;-71
2023/04/20 11:18:52;;;;;;;10.13;9.10;;;8.10;91.00;;;;;;4999234;28;20454;-70
2023/04/20 11:21:19;;;;;;;10.50;9.00;;;8.20;92.60;;;;;;4995759;28;20465;-71
2023/04/20 11:23:46;;;;;;;10.70;9.63;;;8.10;92.10;;;;;;5001052;28;20490;-71
2023/04/20 11:26:13;;;;;;;11.37;10.27;;;8.30;92.00;;;;;;4996230;28;21000;-71
2023/04/20 11:28:51;;;;;;;10.77;9.67;;;8.20;91.80;;;;;;4994069;28;20962;-71
2023/04/20 11:31:18;;;;;;;11.67;10.47;;;8.30;91.70;;;;;;4998540;28;21031;-70
2023/04/20 11:33:45;;;;;;;11.47;10.27;;;8.50;92.30;;;;;;5001356;28;20468;-70
2023/04/20 11:36:20;;;;;;;11.60;10.07;;;8.80;92.30;;;;;;5006558;28;20548;-71
2023/04/20 11:38:47;;;;;;;11.20;10.00;;;9.10;91.30;;;;;;5006140;28;20454;-70
2023/04/20 11:41:14;;;;;;;12.13;10.93;;;9.20;90.20;;;;;;4999821;28;20471;-70
2023/04/20 11:43:42;;;;;;;12.77;11.43;;;9.40;90.60;;;;;;4999225;28;20447;-70
2023/04/20 11:46:16;;;;;;;11.00;9.90;;;9.70;91.50;;;;;;4998817;28;20457;-71
2023/04/20 11:48:43;;;;;;;11.70;10.50;;;9.90;88.90;;;;;;4999803;28;20869;-69
2023/04/20 11:51:10;;;;;;;14.43;10.97;;;9.80;90.20;;;;;;5005958;28;20523;-70
2023/04/20 11:53:38;;;;;;;10.43;9.43;;;9.60;86.70;;;;;;5008146;28;20473;-70
2023/04/20 11:56:06;;;;;;;12.87;11.47;;;9.30;86.50;;;;;;4998276;28;20452;-71
2023/04/20 11:58:33;;;;;;;11.80;10.47;;;9.20;90.30;;;;;;4998729;28;20462;-69
2023/04/20 12:01:00;;;;;;;11.53;10.53;;;9.10;89.00;;;;;;5009059;28;20447;-71
2023/04/20 12:03:26;;;;;;;9.70;8.60;;;9.20;90.30;;;;;;5000801;28;20451;-70
2023/04/20 12:05:53;;;;;;;12.07;10.83;;;8.90;84.30;;;;;;5008965;28;20593;-71
2023/04/20 12:08:20;;;;;;;11.37;10.13;;;8.90;88.20;;;;;;4994787;28;20452;-72
2023/04/20 12:10:49;;;;;;;9.83;8.93;;;8.90;87.50;;;;;;5008039;28;20885;-72
2023/04/20 12:13:15;;;;;;;10.37;9.37;;;8.90;89.00;;;;;;5005307;28;20456;-71
2023/04/20 12:15:42;;;;;;;11.40;10.30;;;9.10;89.80;;;;;;4999607;28;20514;-72
2023/04/20 12:18:09;;;;;;;11.40;9.53;;;9.10;89.10;;;;;;5006681;28;20451;-71
2023/04/20 12:20:36;;;;;;;11.27;10.27;;;9.10;89.70;;;;;;4997700;28;20953;-71
2023/04/20 12:23:03;;;;;;;12.27;10.37;;;9.10;88.90;;;;;;4995438;28;20519;-71
2023/04/20 12:25:30;;;;;;;11.30;10.20;;;9.10;89.80;;;;;;4997256;28;21008;-71
2023/04/20 12:27:58;;;;;;;10.37;9.30;;;9.20;88.30;;;;;;5000101;28;20944;-71
2023/04/20 12:30:25;;;;;;;11.47;10.27;;;9.30;87.50;;;;;;5003748;28;20467;-71
2023/04/20 12:32:52;;;;;;;10.90;9.87;;;9.40;87.80;;;;;;4995947;28;21039;-71
2023/04/20 12:35:19;;;;;;;10.63;9.63;;;9.50;86.20;;;;;;5001336;28;20447;-71
2023/04/20 12:37:46;;;;;;;12.30;9.70;;;9.40;84.60;;;;;;5001499;28;20539;-71
2023/04/20 12:40:13;;;;;;;11.17;10.00;;;9.30;85.40;;;;;;5003960;28;20464;-70
2023/04/20 12:42:40;;;;;;;10.87;9.77;;;9.40;86.10;;;;;;4996069;28;20556;-71
2023/04/20 12:45:09;;;;;;;10.73;9.53;;;9.40;87.30;;;;;;5009187;28;21031;-70
2023/04/20 12:47:36;;;;;;;11.27;9.73;;;9.20;86.40;;;;;;5006570;28;20455;-70
2023/04/20 12:50:06;;;;;;;8.87;8.00;;;9.30;86.10;;;;;;5001776;28;20457;-71